Haltom City, Texas
Current Conditions -  °F | °C
As of 4:53 PM on Saturday 25 Oct 2014 (Local Time) from KFTW Reporting Station
Clear Clear  
Wind Chill: 89°   Ceiling: Unl
Heat Index: 89°   Visibility: 10mi
Dew Point: 59°   Wind: 8mph
Humidity: 36%   Direction: 150°SSE
Pressure: 30.05"   Gusts: NA
Location:  32.81°N, 97.27°W
Report Text: KFTW 252153Z 15007KT 10SM CLR 32/15 A3005 RMK AO2 SLP167 T03170150
Loading
Personal Weather Stations






























Interactive Weather Map
Tropical Storm Tracking
New forecast layout! Learn more

10-Day Weather Forecast

Advertisements
Track Severe Weather on mobile